Time;durP1;ratioP1;P1;durP2;ratioP2;P2;SDS_P1;SDS_P2;PMS_P1;PMS_P2;Temp;Humidity;BMP_temperature;BMP_pressure;BME280_temperature;BME280_humidity;BME280_pressure;Samples;Min_cycle;Max_cycle;Signal;HPM_P1;HPM_P2
2023/08/18 00:01:38;;;;;;;;;;;;;;;;;;4984743;28;19921;-65
2023/08/18 00:04:03;;;;;;;;;;;;;;;;;;5019835;28;21119;-64
2023/08/18 00:06:29;;;;;;;;;;;;;;;;;;5000081;28;20925;-64
2023/08/18 00:08:54;;;;;;;;;;;;;;;;;;4990016;28;20458;-64
2023/08/18 00:11:20;;;;;;;;;;;;;;;;;;5019718;28;19921;-64
2023/08/18 00:13:48;;;;;;;;;;;;;;;;;;5001868;28;19932;-63
2023/08/18 00:16:16;;;;;;;;;;;;;;;;;;5002260;28;19983;-65
2023/08/18 00:18:41;;;;;;;;;;;;;;;;;;5018758;28;19940;-64
2023/08/18 00:21:07;;;;;;;;;;;;;;;;;;4983601;28;19917;-64
2023/08/18 00:23:32;;;;;;;;;;;;;;;;;;4998999;28;19921;-64
2023/08/18 00:25:57;;;;;;;;;;;;;;;;;;5005149;28;19928;-64
2023/08/18 00:28:23;;;;;;;;;;;;;;;;;;4999389;28;19928;-64
2023/08/18 00:30:48;;;;;;;;;;;;;;;;;;5001368;28;20418;-64
2023/08/18 00:33:13;;;;;;;;;;;;;;;;;;5007662;28;20356;-64
2023/08/18 00:35:38;;;;;;;;;;;;;;;;;;4989456;28;19936;-63
2023/08/18 00:38:06;;;;;;;;;;;;;;;;;;5000172;28;19924;-64
2023/08/18 00:40:34;;;;;;;;;;;;;;;;;;5017608;28;19924;-64
2023/08/18 00:42:59;;;;;;;;;;;;;;;;;;5005599;28;19920;-64
2023/08/18 00:45:24;;;;;;;;;;;;;;;;;;5018492;28;20766;-64
2023/08/18 00:47:49;;;;;;;;;;;;;;;;;;4991371;28;19982;-64
2023/08/18 00:50:15;;;;;;;;;;;;;;;;;;4991248;28;19963;-65
2023/08/18 00:52:40;;;;;;;;;;;;;;;;;;5016721;28;19963;-64
2023/08/18 00:55:05;;;;;;;;;;;;;;;;;;5001754;28;20295;-64
2023/08/18 00:57:31;;;;;;;;;;;;;;;;;;4991269;28;19924;-64
2023/08/18 00:59:56;;;;;;;;;;;;;;;;;;5018507;28;19941;-64
2023/08/18 01:02:21;;;;;;;;;;;;;;;;;;4992647;28;19920;-64
2023/08/18 01:04:46;;;;;;;;;;;;;;;;;;4998198;28;19921;-64
2023/08/18 01:07:12;;;;;;;;;;;;;;;;;;4983625;28;20015;-65
2023/08/18 01:09:37;;;;;;;;;;;;;;;;;;5003219;28;20934;-64
2023/08/18 01:12:02;;;;;;;;;;;;;;;;;;5017198;28;20402;-64
2023/08/18 01:14:28;;;;;;;;;;;;;;;;;;5019938;28;19916;-64
2023/08/18 01:16:53;;;;;;;;;;;;;;;;;;5005121;28;20347;-65
2023/08/18 01:19:18;;;;;;;;;;;;;;;;;;4986324;28;20865;-65
2023/08/18 01:21:44;;;;;;;;;;;;;;;;;;5001624;28;19917;-65
2023/08/18 01:24:09;;;;;;;;;;;;;;;;;;5018114;28;19924;-64
2023/08/18 01:26:37;;;;;;;;;;;;;;;;;;4992297;28;20032;-64
2023/08/18 01:29:02;;;;;;;;;;;;;;;;;;4992700;28;19921;-65
2023/08/18 01:31:27;;;;;;;;;;;;;;;;;;5019640;28;19935;-65
2023/08/18 01:33:55;;;;;;;;;;;;;;;;;;4989273;28;19975;-65
2023/08/18 01:36:20;;;;;;;;;;;;;;;;;;5003182;28;19956;-65
2023/08/18 01:38:46;;;;;;;;;;;;;;;;;;5013155;28;19921;-65
2023/08/18 01:41:11;;;;;;;;;;;;;;;;;;5002697;28;19928;-65
2023/08/18 01:43:37;;;;;;;;;;;;;;;;;;5003843;28;19924;-64
2023/08/18 01:46:02;;;;;;;;;;;;;;;;;;5004449;28;19920;-65
2023/08/18 01:48:39;;;;;;;;;;;;;;;;;;5004678;28;19952;-65
2023/08/18 01:51:05;;;;;;;;;;;;;;;;;;5004951;28;19917;-65
2023/08/18 01:53:33;;;;;;;;;;;;;;;;;;5003825;28;21637;-65
2023/08/18 01:55:58;;;;;;;;;;;;;;;;;;5022168;28;19923;-65
2023/08/18 01:58:26;;;;;;;;;;;;;;;;;;5006845;28;20004;-65
2023/08/18 02:00:51;;;;;;;;;;;;;;;;;;4993024;28;19931;-65
2023/08/18 02:03:17;;;;;;;;;;;;;;;;;;5004721;28;19924;-65
2023/08/18 02:05:44;;;;;;;;;;;;;;;;;;5007407;28;19995;-65
2023/08/18 02:08:10;;;;;;;;;;;;;;;;;;5000652;28;19921;-65
2023/08/18 02:10:35;;;;;;;;;;;;;;;;;;5019265;28;19920;-65
2023/08/18 02:13:00;;;;;;;;;;;;;;;;;;5003230;28;19974;-65
2023/08/18 02:15:30;;;;;;;;;;;;;;;;;;5021856;28;19928;-65
2023/08/18 02:17:55;;;;;;;;;;;;;;;;;;4990163;28;19921;-65
2023/08/18 02:20:24;;;;;;;;;;;;;;;;;;5012342;28;20830;-65
2023/08/18 02:22:49;;;;;;;;;;;;;;;;;;5008895;28;20043;-65
2023/08/18 02:25:14;;;;;;;;;;;;;;;;;;5019078;28;19916;-64
2023/08/18 02:27:39;;;;;;;;;;;;;;;;;;4993437;28;19920;-65
2023/08/18 02:30:08;;;;;;;;;;;;;;;;;;5002203;28;20640;-65
2023/08/18 02:32:33;;;;;;;;;;;;;;;;;;5020957;28;19917;-64
2023/08/18 02:35:01;;;;;;;;;;;;;;;;;;5002465;28;19964;-65
2023/08/18 02:37:29;;;;;;;;;;;;;;;;;;5020995;28;19932;-65
2023/08/18 02:39:54;;;;;;;;;;;;;;;;;;5000896;28;20412;-65
2023/08/18 02:42:20;;;;;;;;;;;;;;;;;;5021113;28;19935;-65
2023/08/18 02:44:47;;;;;;;;;;;;;;;;;;4991386;28;20018;-65
2023/08/18 02:47:13;;;;;;;;;;;;;;;;;;5001717;28;19921;-65
2023/08/18 02:49:38;;;;;;;;;;;;;;;;;;5022002;28;19921;-65
2023/08/18 02:52:03;;;;;;;;;;;;;;;;;;4992187;28;19962;-65
2023/08/18 02:54:29;;;;;;;;;;;;;;;;;;5009995;28;19991;-65
2023/08/18 02:56:57;;;;;;;;;;;;;;;;;;5001611;28;19921;-65
2023/08/18 02:59:23;;;;;;;;;;;;;;;;;;4999331;28;20289;-65
2023/08/18 03:01:48;;;;;;;;;;;;;;;;;;5003451;28;19972;-64
2023/08/18 03:04:15;;;;;;;;;;;;;;;;;;5009858;28;19921;-64
2023/08/18 03:06:41;;;;;;;;;;;;;;;;;;5020113;28;19986;-64
2023/08/18 03:09:08;;;;;;;;;;;;;;;;;;5020741;28;19920;-64
2023/08/18 03:11:36;;;;;;;;;;;;;;;;;;5010748;28;19943;-64
2023/08/18 03:14:02;;;;;;;;;;;;;;;;;;5005966;28;19917;-64
2023/08/18 03:16:27;;;;;;;;;;;;;;;;;;5009179;28;19921;-64
2023/08/18 03:18:52;;;;;;;;;;;;;;;;;;5005487;28;19917;-64
2023/08/18 03:21:20;;;;;;;;;;;;;;;;;;5009838;28;20555;-64
2023/08/18 03:23:46;;;;;;;;;;;;;;;;;;5019385;28;19921;-64
2023/08/18 03:26:11;;;;;;;;;;;;;;;;;;4993157;28;19928;-64
2023/08/18 03:28:37;;;;;;;;;;;;;;;;;;5001047;28;19920;-65
2023/08/18 03:31:05;;;;;;;;;;;;;;;;;;4985254;28;20537;-64
2023/08/18 03:33:33;;;;;;;;;;;;;;;;;;5000515;28;19929;-65
2023/08/18 03:35:58;;;;;;;;;;;;;;;;;;5019552;28;19964;-65
2023/08/18 03:38:24;;;;;;;;;;;;;;;;;;4993280;28;19917;-64
2023/08/18 03:40:49;;;;;;;;;;;;;;;;;;5006719;28;19925;-65
2023/08/18 03:43:14;;;;;;;;;;;;;;;;;;4983328;28;20048;-64
2023/08/18 03:45:40;;;;;;;;;;;;;;;;;;5018943;28;19925;-64
2023/08/18 03:48:08;;;;;;;;;;;;;;;;;;5019940;28;19983;-64
2023/08/18 03:50:33;;;;;;;;;;;;;;;;;;5019955;28;20439;-64
2023/08/18 03:52:58;;;;;;;;;;;;;;;;;;5007924;28;19967;-64
2023/08/18 03:55:24;;;;;;;;;;;;;;;;;;5001006;28;19917;-65
2023/08/18 03:57:49;;;;;;;;;;;;;;;;;;5001631;28;19931;-65
2023/08/18 04:00:14;;;;;;;;;;;;;;;;;;5000145;28;20427;-65
2023/08/18 04:02:42;;;;;;;;;;;;;;;;;;5020214;28;20028;-64
2023/08/18 04:05:10;;;;;;;;;;;;;;;;;;5010124;28;20429;-64
2023/08/18 04:07:36;;;;;;;;;;;;;;;;;;5000517;28;19925;-64
2023/08/18 04:10:03;;;;;;;;;;;;;;;;;;5018284;28;19933;-64
2023/08/18 04:12:28;;;;;;;;;;;;;;;;;;4986854;28;19924;-64
2023/08/18 04:14:57;;;;;;;;;;;;;;;;;;5002295;28;21905;-64
2023/08/18 04:17:22;;;;;;;;;;;;;;;;;;5007515;28;19919;-66
2023/08/18 04:19:50;;;;;;;;;;;;;;;;;;5017958;28;20008;-66
2023/08/18 04:22:18;;;;;;;;;;;;;;;;;;5001183;28;20751;-65
2023/08/18 04:24:44;;;;;;;;;;;;;;;;;;5009064;28;19916;-65
2023/08/18 04:27:10;;;;;;;;;;;;;;;;;;4990376;28;20348;-64
2023/08/18 04:29:38;;;;;;;;;;;;;;;;;;5009091;28;19951;-64
2023/08/18 04:32:04;;;;;;;;;;;;;;;;;;4983923;28;19921;-64
2023/08/18 04:34:29;;;;;;;;;;;;;;;;;;4999620;28;19960;-64
2023/08/18 04:36:54;;;;;;;;;;;;;;;;;;5005455;28;20479;-64
2023/08/18 04:39:21;;;;;;;;;;;;;;;;;;4989345;28;20372;-65
2023/08/18 04:41:46;;;;;;;;;;;;;;;;;;5018559;28;19928;-64
2023/08/18 04:44:11;;;;;;;;;;;;;;;;;;5009246;28;19917;-65
2023/08/18 04:46:39;;;;;;;;;;;;;;;;;;5009652;28;19956;-64
2023/08/18 04:49:05;;;;;;;;;;;;;;;;;;5000901;28;20008;-64
2023/08/18 04:51:30;;;;;;;;;;;;;;;;;;5008715;28;20015;-64
2023/08/18 04:54:01;;;;;;;;;;;;;;;;;;5003040;28;20000;-64
2023/08/18 04:56:26;;;;;;;;;;;;;;;;;;4992281;28;19939;-65
2023/08/18 04:58:55;;;;;;;;;;;;;;;;;;5003803;28;20375;-64
2023/08/18 05:01:20;;;;;;;;;;;;;;;;;;5016944;28;20422;-64
2023/08/18 05:03:48;;;;;;;;;;;;;;;;;;5002940;28;20873;-65
2023/08/18 05:06:14;;;;;;;;;;;;;;;;;;4985759;28;20011;-65
2023/08/18 05:08:42;;;;;;;;;;;;;;;;;;5010082;28;19925;-65
2023/08/18 05:11:07;;;;;;;;;;;;;;;;;;5007670;28;19921;-65
2023/08/18 05:13:32;;;;;;;;;;;;;;;;;;5010969;28;19917;-64
2023/08/18 05:16:01;;;;;;;;;;;;;;;;;;5021172;28;20025;-64
2023/08/18 05:18:26;;;;;;;;;;;;;;;;;;5020291;28;21898;-64
2023/08/18 05:20:51;;;;;;;;;;;;;;;;;;4992874;28;19927;-65
2023/08/18 05:23:17;;;;;;;;;;;;;;;;;;5021199;28;20024;-64
2023/08/18 05:25:42;;;;;;;;;;;;;;;;;;5003053;28;19927;-64
2023/08/18 05:28:07;;;;;;;;;;;;;;;;;;4993443;28;19917;-65
2023/08/18 05:30:33;;;;;;;;;;;;;;;;;;5007446;28;19920;-64
2023/08/18 05:32:58;;;;;;;;;;;;;;;;;;5002814;28;19917;-64
2023/08/18 05:35:23;;;;;;;;;;;;;;;;;;5008815;28;19928;-65
2023/08/18 05:37:51;;;;;;;;;;;;;;;;;;4989174;28;20038;-65
2023/08/18 05:40:16;;;;;;;;;;;;;;;;;;5019585;28;20016;-65
2023/08/18 05:42:42;;;;;;;;;;;;;;;;;;4993276;28;19928;-65
2023/08/18 05:45:07;;;;;;;;;;;;;;;;;;5002683;28;20012;-65
2023/08/18 05:47:32;;;;;;;;;;;;;;;;;;5000163;28;19927;-65
2023/08/18 05:50:00;;;;;;;;;;;;;;;;;;5001535;28;19964;-66
2023/08/18 05:52:28;;;;;;;;;;;;;;;;;;4999726;28;19921;-64
2023/08/18 05:54:56;;;;;;;;;;;;;;;;;;5008864;28;19917;-66
2023/08/18 05:57:24;;;;;;;;;;;;;;;;;;4999749;28;19924;-65
2023/08/18 05:59:49;;;;;;;;;;;;;;;;;;5004033;28;19921;-65
2023/08/18 06:02:15;;;;;;;;;;;;;;;;;;4989884;28;19959;-68
2023/08/18 06:04:43;;;;;;;;;;;;;;;;;;4989444;28;20572;-66
2023/08/18 06:07:09;;;;;;;;;;;;;;;;;;4988437;28;20455;-65
2023/08/18 06:09:35;;;;;;;;;;;;;;;;;;5001373;28;19925;-65
2023/08/18 06:12:00;;;;;;;;;;;;;;;;;;5003369;28;19924;-65
2023/08/18 06:14:25;;;;;;;;;;;;;;;;;;5009172;28;19953;-65
2023/08/18 06:16:50;;;;;;;;;;;;;;;;;;5008978;28;20269;-66
2023/08/18 06:19:18;;;;;;;;;;;;;;;;;;5001158;28;19928;-65
2023/08/18 06:21:44;;;;;;;;;;;;;;;;;;5003345;28;20300;-65
2023/08/18 06:24:12;;;;;;;;;;;;;;;;;;5007055;28;19924;-64
2023/08/18 06:26:37;;;;;;;;;;;;;;;;;;5001368;28;20553;-65
2023/08/18 06:29:02;;;;;;;;;;;;;;;;;;5002809;28;19922;-67
2023/08/18 06:31:30;;;;;;;;;;;;;;;;;;5002055;28;19989;-66
2023/08/18 06:33:56;;;;;;;;;;;;;;;;;;4989185;28;21139;-65
2023/08/18 06:36:23;;;;;;;;;;;;;;;;;;5009686;28;19921;-65
2023/08/18 06:38:49;;;;;;;;;;;;;;;;;;5000355;28;19967;-65
2023/08/18 06:41:14;;;;;;;;;;;;;;;;;;4990435;28;20039;-65
2023/08/18 06:43:42;;;;;;;;;;;;;;;;;;5001984;28;20186;-65
2023/08/18 06:46:10;;;;;;;;;;;;;;;;;;4998855;28;20419;-66
2023/08/18 06:54:42;;;;;;;;;;;;;;;;;;4999432;28;20006;-66
2023/08/18 06:57:07;;;;;;;;;;;;;;;;;;5001055;28;19917;-66
2023/08/18 06:59:32;;;;;;;;;;;;;;;;;;4997835;28;19960;-66
2023/08/18 07:02:00;;;;;;;;;;;;;;;;;;5001345;28;19971;-68
2023/08/18 07:04:28;;;;;;;;;;;;;;;;;;5002893;28;19921;-67
2023/08/18 07:06:56;;;;;;;;;;;;;;;;;;5000842;28;20430;-65
2023/08/18 07:09:24;;;;;;;;;;;;;;;;;;5000321;28;19923;-65
2023/08/18 07:11:49;;;;;;;;;;;;;;;;;;4978898;28;19988;-65
2023/08/18 07:14:15;;;;;;;;;;;;;;;;;;5002001;28;20043;-65
2023/08/18 07:16:43;;;;;;;;;;;;;;;;;;5003087;28;20374;-65
2023/08/18 07:19:08;;;;;;;;;;;;;;;;;;5001169;28;19918;-65
2023/08/18 07:21:34;;;;;;;;;;;;;;;;;;5002936;28;21873;-67
2023/08/18 07:27:16;;;;;;;;;;;;;;;;;;5001196;28;19927;-65
2023/08/18 07:29:41;;;;;;;;;;;;;;;;;;4982241;28;20372;-64
2023/08/18 07:32:07;;;;;;;;;;;;;;;;;;5001419;28;21924;-65
2023/08/18 07:34:35;;;;;;;;;;;;;;;;;;4997846;28;20309;-65
2023/08/18 07:37:05;;;;;;;;;;;;;;;;;;5007394;28;19914;-65
2023/08/18 07:39:31;;;;;;;;;;;;;;;;;;4998330;28;19960;-65
2023/08/18 07:42:00;;;;;;;;;;;;;;;;;;4998355;28;19933;-66
2023/08/18 07:44:26;;;;;;;;;;;;;;;;;;5001725;28;19921;-66
2023/08/18 07:46:52;;;;;;;;;;;;;;;;;;4990898;28;19931;-66
2023/08/18 07:49:20;;;;;;;;;;;;;;;;;;4999901;28;19921;-67
2023/08/18 07:51:45;;;;;;;;;;;;;;;;;;5000273;28;19921;-66
2023/08/18 07:54:10;;;;;;;;;;;;;;;;;;4989050;28;19996;-66
2023/08/18 07:56:36;;;;;;;;;;;;;;;;;;4999425;28;19921;-66
2023/08/18 07:59:03;;;;;;;;;;;;;;;;;;4996457;28;19928;-66
2023/08/18 08:01:28;;;;;;;;;;;;;;;;;;4997565;28;20016;-66
2023/08/18 08:03:55;;;;;;;;;;;;;;;;;;4999914;28;19922;-66
2023/08/18 08:06:20;;;;;;;;;;;;;;;;;;5001935;28;19921;-66
2023/08/18 08:08:48;;;;;;;;;;;;;;;;;;4996016;28;19971;-66
2023/08/18 08:11:16;;;;;;;;;;;;;;;;;;4988468;28;19926;-66
2023/08/18 08:13:42;;;;;;;;;;;;;;;;;;5013892;28;20015;-65
2023/08/18 08:19:24;;;;;;;;;;;;;;;;;;4998738;28;19928;-66
2023/08/18 08:21:49;;;;;;;;;;;;;;;;;;4997355;28;19917;-66
2023/08/18 08:27:07;;;;;;;;;;;;;;;;;;5000458;28;19926;-66
2023/08/18 08:29:33;;;;;;;;;;;;;;;;;;4998556;28;19929;-66
2023/08/18 08:31:58;;;;;;;;;;;;;;;;;;4995884;28;19922;-66
2023/08/18 08:34:23;;;;;;;;;;;;;;;;;;4990086;28;19923;-66
2023/08/18 08:40:05;;;;;;;;;;;;;;;;;;4999852;28;20597;-68
2023/08/18 08:42:30;;;;;;;;;;;;;;;;;;5012856;28;19929;-67
2023/08/18 08:44:56;;;;;;;;;;;;;;;;;;5023206;28;19929;-65
2023/08/18 08:47:21;;;;;;;;;;;;;;;;;;5023850;28;19921;-67
2023/08/18 08:49:46;;;;;;;;;;;;;;;;;;5019427;28;19921;-69
2023/08/18 08:52:16;;;;;;;;;;;;;;;;;;5011939;28;20256;-67
2023/08/18 08:54:41;;;;;;;;;;;;;;;;;;5009624;28;19921;-67
2023/08/18 08:57:11;;;;;;;;;;;;;;;;;;5022427;28;19921;-66
2023/08/18 08:59:39;;;;;;;;;;;;;;;;;;5003281;28;19927;-66
2023/08/18 09:02:04;;;;;;;;;;;;;;;;;;4995781;28;19921;-67
2023/08/18 09:04:30;;;;;;;;;;;;;;;;;;5022679;28;20121;-66
2023/08/18 09:06:55;;;;;;;;;;;;;;;;;;5013148;28;20384;-66
2023/08/18 09:09:23;;;;;;;;;;;;;;;;;;4986620;28;20341;-65
2023/08/18 09:11:51;;;;;;;;;;;;;;;;;;4995549;28;19951;-67
2023/08/18 09:14:37;;;;;;;;;;;;;;;;;;5012216;28;19999;-67
2023/08/18 09:20:19;;;;;;;;;;;;;;;;;;5020233;28;19924;-67
2023/08/18 09:22:44;;;;;;;;;;;;;;;;;;4994522;28;19921;-67
2023/08/18 09:25:12;;;;;;;;;;;;;;;;;;4986593;28;19920;-71
2023/08/18 09:27:37;;;;;;;;;;;;;;;;;;5008780;28;19983;-69
2023/08/18 09:30:02;;;;;;;;;;;;;;;;;;5012389;28;21874;-67
2023/08/18 09:32:31;;;;;;;;;;;;;;;;;;4996108;28;19921;-66
2023/08/18 09:34:56;;;;;;;;;;;;;;;;;;5006795;28;19921;-69
2023/08/18 09:37:24;;;;;;;;;;;;;;;;;;5021226;28;20010;-67
2023/08/18 09:39:50;;;;;;;;;;;;;;;;;;5002690;28;20155;-67
2023/08/18 09:42:15;;;;;;;;;;;;;;;;;;5007715;28;20041;-67
2023/08/18 09:44:43;;;;;;;;;;;;;;;;;;4994162;28;19921;-67
2023/08/18 09:47:09;;;;;;;;;;;;;;;;;;5003290;28;19932;-68
2023/08/18 09:49:34;;;;;;;;;;;;;;;;;;5022070;28;19968;-69
2023/08/18 09:52:03;;;;;;;;;;;;;;;;;;5022272;28;19928;-66
2023/08/18 09:54:28;;;;;;;;;;;;;;;;;;5019694;28;19966;-66
2023/08/18 09:56:54;;;;;;;;;;;;;;;;;;4992549;28;19972;-66
2023/08/18 09:59:21;;;;;;;;;;;;;;;;;;4993568;28;19964;-67
2023/08/18 10:01:52;;;;;;;;;;;;;;;;;;5007263;28;19956;-66
2023/08/18 10:04:17;;;;;;;;;;;;;;;;;;5007242;28;19921;-67
2023/08/18 10:06:45;;;;;;;;;;;;;;;;;;5021370;28;20487;-67
2023/08/18 10:09:13;;;;;;;;;;;;;;;;;;5013052;28;19944;-66
2023/08/18 10:11:38;;;;;;;;;;;;;;;;;;5000885;28;19921;-65
2023/08/18 10:14:04;;;;;;;;;;;;;;;;;;5021830;28;19924;-66
2023/08/18 10:16:47;;;;;;;;;;;;;;;;;;5020393;28;20766;-65
2023/08/18 10:19:15;;;;;;;;;;;;;;;;;;5005447;28;19923;-68
2023/08/18 10:21:40;;;;;;;;;;;;;;;;;;5021781;28;19935;-67
2023/08/18 10:24:06;;;;;;;;;;;;;;;;;;4987534;28;19921;-67
2023/08/18 10:26:31;;;;;;;;;;;;;;;;;;5020918;28;19927;-67
2023/08/18 10:28:57;;;;;;;;;;;;;;;;;;4984893;28;20047;-70
2023/08/18 10:31:22;;;;;;;;;;;;;;;;;;5002638;28;19917;-67
2023/08/18 10:33:48;;;;;;;;;;;;;;;;;;5004577;28;19925;-69
2023/08/18 10:36:14;;;;;;;;;;;;;;;;;;5003173;28;19962;-68
2023/08/18 10:38:42;;;;;;;;;;;;;;;;;;4983566;28;19921;-67
2023/08/18 10:41:08;;;;;;;;;;;;;;;;;;5001495;28;20372;-67
2023/08/18 10:43:34;;;;;;;;;;;;;;;;;;5020089;28;20304;-67
2023/08/18 10:46:02;;;;;;;;;;;;;;;;;;5002591;28;19917;-65
2023/08/18 10:48:27;;;;;;;;;;;;;;;;;;5004208;28;19928;-70
2023/08/18 10:50:52;;;;;;;;;;;;;;;;;;5011131;28;19921;-68
2023/08/18 10:53:18;;;;;;;;;;;;;;;;;;5018197;28;21898;-67
2023/08/18 10:55:43;;;;;;;;;;;;;;;;;;5002459;28;19996;-69
2023/08/18 10:58:09;;;;;;;;;;;;;;;;;;4991421;28;19928;-67
2023/08/18 11:00:34;;;;;;;;;;;;;;;;;;4993731;28;20024;-67
2023/08/18 11:03:00;;;;;;;;;;;;;;;;;;5019536;28;20051;-67
2023/08/18 11:05:28;;;;;;;;;;;;;;;;;;4983904;28;19928;-70
2023/08/18 11:07:56;;;;;;;;;;;;;;;;;;4999477;28;19980;-68
2023/08/18 11:10:21;;;;;;;;;;;;;;;;;;4993859;28;19917;-66
2023/08/18 11:12:47;;;;;;;;;;;;;;;;;;5005794;28;20303;-66
2023/08/18 11:15:14;;;;;;;;;;;;;;;;;;4992367;28;19921;-67
2023/08/18 11:17:40;;;;;;;;;;;;;;;;;;5002153;28;20335;-67
2023/08/18 11:20:11;;;;;;;;;;;;;;;;;;5000405;28;19921;-66
2023/08/18 11:22:36;;;;;;;;;;;;;;;;;;5009441;28;19921;-66
2023/08/18 11:25:03;;;;;;;;;;;;;;;;;;5017967;28;19921;-66
2023/08/18 11:27:28;;;;;;;;;;;;;;;;;;4993857;28;20003;-67
2023/08/18 11:29:54;;;;;;;;;;;;;;;;;;4992714;28;19961;-68
2023/08/18 11:32:19;;;;;;;;;;;;;;;;;;5009135;28;19924;-65
2023/08/18 11:34:45;;;;;;;;;;;;;;;;;;5002077;28;19921;-65
2023/08/18 11:37:10;;;;;;;;;;;;;;;;;;5015681;28;19928;-65
2023/08/18 11:39:35;;;;;;;;;;;;;;;;;;5001417;28;19996;-65
2023/08/18 11:42:01;;;;;;;;;;;;;;;;;;5007323;28;20284;-65
2023/08/18 11:44:26;;;;;;;;;;;;;;;;;;5000192;28;19948;-66
2023/08/18 11:46:51;;;;;;;;;;;;;;;;;;4983336;28;19950;-66
2023/08/18 11:49:17;;;;;;;;;;;;;;;;;;4992460;28;19927;-66
2023/08/18 11:51:45;;;;;;;;;;;;;;;;;;5002187;28;19927;-67
2023/08/18 11:54:10;;;;;;;;;;;;;;;;;;4983091;28;19917;-67
2023/08/18 11:56:36;;;;;;;;;;;;;;;;;;5004014;28;19931;-67
2023/08/18 11:59:02;;;;;;;;;;;;;;;;;;4997905;28;19970;-65
2023/08/18 12:01:27;;;;;;;;;;;;;;;;;;5004377;28;19920;-67
2023/08/18 12:03:52;;;;;;;;;;;;;;;;;;5017471;28;19924;-66
2023/08/18 12:06:18;;;;;;;;;;;;;;;;;;5004462;28;19921;-66
2023/08/18 12:08:43;;;;;;;;;;;;;;;;;;5002669;28;19917;-66
2023/08/18 12:11:08;;;;;;;;;;;;;;;;;;5003401;28;19917;-66
2023/08/18 12:13:33;;;;;;;;;;;;;;;;;;5002005;28;19913;-66
2023/08/18 12:16:01;;;;;;;;;;;;;;;;;;5019385;28;19928;-66
2023/08/18 12:18:28;;;;;;;;;;;;;;;;;;5000316;28;20046;-67
2023/08/18 12:20:53;;;;;;;;;;;;;;;;;;5018623;28;19917;-67
2023/08/18 12:23:18;;;;;;;;;;;;;;;;;;5018165;28;19928;-67
2023/08/18 12:25:46;;;;;;;;;;;;;;;;;;4987404;28;19939;-67
2023/08/18 12:28:14;;;;;;;;;;;;;;;;;;5002772;28;19917;-66
2023/08/18 12:30:42;;;;;;;;;;;;;;;;;;5018328;28;19924;-67
2023/08/18 12:33:07;;;;;;;;;;;;;;;;;;5017816;28;19921;-67
2023/08/18 12:35:33;;;;;;;;;;;;;;;;;;5019153;28;19928;-67
2023/08/18 12:37:58;;;;;;;;;;;;;;;;;;5017879;28;19932;-67
2023/08/18 12:40:24;;;;;;;;;;;;;;;;;;4999785;28;19924;-67
2023/08/18 12:42:49;;;;;;;;;;;;;;;;;;5007751;28;19948;-67
2023/08/18 12:45:17;;;;;;;;;;;;;;;;;;4992764;28;20068;-67
2023/08/18 12:47:43;;;;;;;;;;;;;;;;;;5001522;28;20242;-67
2023/08/18 12:50:08;;;;;;;;;;;;;;;;;;4984254;28;19921;-67
2023/08/18 12:52:33;;;;;;;;;;;;;;;;;;5008378;28;19948;-67
2023/08/18 12:55:01;;;;;;;;;;;;;;;;;;5008967;28;19960;-67
2023/08/18 12:57:26;;;;;;;;;;;;;;;;;;4983428;28;20495;-67
2023/08/18 12:59:54;;;;;;;;;;;;;;;;;;5018670;28;19932;-67
2023/08/18 13:02:20;;;;;;;;;;;;;;;;;;5001047;28;19921;-67
2023/08/18 13:04:45;;;;;;;;;;;;;;;;;;5003816;28;20066;-68
2023/08/18 13:07:10;;;;;;;;;;;;;;;;;;5003024;28;20498;-66
2023/08/18 13:09:36;;;;;;;;;;;;;;;;;;4999130;28;20381;-66
2023/08/18 13:12:01;;;;;;;;;;;;;;;;;;5003966;28;19925;-66
2023/08/18 13:14:30;;;;;;;;;;;;;;;;;;4997781;28;19979;-68
2023/08/18 13:16:55;;;;;;;;;;;;;;;;;;4993339;28;20320;-67
2023/08/18 13:19:23;;;;;;;;;;;;;;;;;;5018074;28;19928;-67
2023/08/18 13:21:50;;;;;;;;;;;;;;;;;;5001760;28;19960;-66
2023/08/18 13:24:16;;;;;;;;;;;;;;;;;;4999556;28;20427;-67
2023/08/18 13:26:42;;;;;;;;;;;;;;;;;;4990571;28;19917;-67
2023/08/18 13:29:08;;;;;;;;;;;;;;;;;;4984309;28;19952;-67
2023/08/18 13:31:36;;;;;;;;;;;;;;;;;;4996559;28;20384;-67
2023/08/18 13:34:01;;;;;;;;;;;;;;;;;;4986192;28;19925;-67
2023/08/18 13:36:26;;;;;;;;;;;;;;;;;;5021935;28;20368;-67
2023/08/18 13:38:55;;;;;;;;;;;;;;;;;;5001717;28;19939;-67
2023/08/18 13:41:20;;;;;;;;;;;;;;;;;;4997277;28;19920;-67
2023/08/18 13:43:45;;;;;;;;;;;;;;;;;;4993371;28;19920;-67
2023/08/18 13:46:11;;;;;;;;;;;;;;;;;;5002436;28;19917;-68
2023/08/18 13:48:47;;;;;;;;;;;;;;;;;;5021414;28;20296;-67
2023/08/18 13:51:13;;;;;;;;;;;;;;;;;;4988978;28;20347;-67
2023/08/18 13:53:38;;;;;;;;;;;;;;;;;;5020902;28;20357;-68
2023/08/18 13:56:03;;;;;;;;;;;;;;;;;;5020810;28;19928;-68
2023/08/18 13:58:28;;;;;;;;;;;;;;;;;;5020410;28;19922;-69
2023/08/18 14:00:54;;;;;;;;;;;;;;;;;;5022656;28;19917;-68
2023/08/18 14:03:21;;;;;;;;;;;;;;;;;;5006465;28;20035;-67
2023/08/18 14:05:46;;;;;;;;;;;;;;;;;;5012279;28;19974;-69
2023/08/18 14:08:14;;;;;;;;;;;;;;;;;;5017432;28;20261;-68
2023/08/18 14:10:39;;;;;;;;;;;;;;;;;;4995816;28;20273;-67
2023/08/18 14:13:05;;;;;;;;;;;;;;;;;;5011169;28;19927;-67
2023/08/18 14:15:30;;;;;;;;;;;;;;;;;;5021346;28;19917;-67
2023/08/18 14:17:58;;;;;;;;;;;;;;;;;;5011605;28;19925;-67
2023/08/18 14:20:26;;;;;;;;;;;;;;;;;;4986211;28;20023;-67
2023/08/18 14:22:54;;;;;;;;;;;;;;;;;;4988272;28;20847;-68
2023/08/18 14:25:20;;;;;;;;;;;;;;;;;;5019529;28;19992;-67
2023/08/18 14:27:45;;;;;;;;;;;;;;;;;;4994453;28;20339;-67
2023/08/18 14:30:10;;;;;;;;;;;;;;;;;;5001530;28;19995;-66
2023/08/18 14:32:36;;;;;;;;;;;;;;;;;;5006644;28;20288;-66
2023/08/18 14:35:03;;;;;;;;;;;;;;;;;;5020428;28;19928;-66
2023/08/18 14:37:28;;;;;;;;;;;;;;;;;;5019710;28;20410;-67
2023/08/18 14:39:53;;;;;;;;;;;;;;;;;;5003362;28;19924;-66
2023/08/18 14:42:19;;;;;;;;;;;;;;;;;;5002444;28;19960;-66
2023/08/18 14:44:44;;;;;;;;;;;;;;;;;;5001459;28;19944;-67
2023/08/18 14:47:09;;;;;;;;;;;;;;;;;;5005953;28;19932;-66
2023/08/18 14:49:42;;;;;;;;;;;;;;;;;;4990741;28;20035;-67
2023/08/18 14:52:07;;;;;;;;;;;;;;;;;;5001516;28;19928;-66
2023/08/18 14:54:33;;;;;;;;;;;;;;;;;;5000330;28;19921;-66
2023/08/18 14:56:58;;;;;;;;;;;;;;;;;;4990562;28;19921;-66
2023/08/18 14:59:24;;;;;;;;;;;;;;;;;;4982649;28;20492;-66
2023/08/18 15:01:52;;;;;;;;;;;;;;;;;;4999572;28;20425;-67
2023/08/18 15:04:17;;;;;;;;;;;;;;;;;;5005069;28;21755;-67
2023/08/18 15:06:45;;;;;;;;;;;;;;;;;;5000175;28;20036;-68
2023/08/18 15:09:13;;;;;;;;;;;;;;;;;;4994509;28;20749;-66
2023/08/18 15:11:41;;;;;;;;;;;;;;;;;;4997930;28;19917;-66
2023/08/18 15:14:11;;;;;;;;;;;;;;;;;;4992713;28;19932;-67
2023/08/18 15:16:36;;;;;;;;;;;;;;;;;;4984834;28;19925;-67
2023/08/18 15:19:05;;;;;;;;;;;;;;;;;;4987196;28;19917;-67
2023/08/18 15:21:30;;;;;;;;;;;;;;;;;;5006544;28;19921;-67
2023/08/18 15:23:55;;;;;;;;;;;;;;;;;;4998677;28;19933;-65
2023/08/18 15:26:23;;;;;;;;;;;;;;;;;;4998765;28;19921;-66
2023/08/18 15:28:48;;;;;;;;;;;;;;;;;;4987509;28;19932;-65
2023/08/18 15:31:17;;;;;;;;;;;;;;;;;;5001090;28;19917;-66
2023/08/18 15:33:44;;;;;;;;;;;;;;;;;;4988176;28;19924;-66
2023/08/18 15:36:13;;;;;;;;;;;;;;;;;;4983241;28;19921;-66
2023/08/18 15:38:38;;;;;;;;;;;;;;;;;;4996072;28;20710;-66
2023/08/18 15:41:08;;;;;;;;;;;;;;;;;;4998347;28;20275;-66
2023/08/18 15:43:33;;;;;;;;;;;;;;;;;;5018986;28;20012;-67
2023/08/18 15:46:01;;;;;;;;;;;;;;;;;;4984359;28;19920;-67
2023/08/18 15:48:29;;;;;;;;;;;;;;;;;;4999698;28;19921;-65
2023/08/18 15:50:58;;;;;;;;;;;;;;;;;;5001650;28;20840;-68
2023/08/18 15:53:26;;;;;;;;;;;;;;;;;;4987057;28;19925;-66
2023/08/18 15:55:54;;;;;;;;;;;;;;;;;;5019472;28;19967;-67
2023/08/18 15:58:22;;;;;;;;;;;;;;;;;;5018109;28;19974;-67
2023/08/18 16:00:47;;;;;;;;;;;;;;;;;;4991227;28;19922;-66
2023/08/18 16:03:13;;;;;;;;;;;;;;;;;;5017145;28;20051;-66
2023/08/18 16:05:38;;;;;;;;;;;;;;;;;;5001321;28;20012;-66
2023/08/18 16:08:04;;;;;;;;;;;;;;;;;;4989537;28;19999;-66
2023/08/18 16:10:29;;;;;;;;;;;;;;;;;;4996554;28;19928;-66
2023/08/18 16:12:57;;;;;;;;;;;;;;;;;;4992603;28;20434;-66
2023/08/18 16:15:22;;;;;;;;;;;;;;;;;;4992000;28;19928;-67
2023/08/18 16:17:48;;;;;;;;;;;;;;;;;;5000411;28;19956;-66
2023/08/18 16:20:13;;;;;;;;;;;;;;;;;;5009353;28;20006;-66
2023/08/18 16:22:38;;;;;;;;;;;;;;;;;;5017168;28;19932;-67
2023/08/18 16:25:07;;;;;;;;;;;;;;;;;;5016759;28;19929;-66
2023/08/18 16:27:34;;;;;;;;;;;;;;;;;;4985370;28;20024;-66
2023/08/18 16:30:00;;;;;;;;;;;;;;;;;;5001220;28;19920;-65
2023/08/18 16:32:25;;;;;;;;;;;;;;;;;;4990277;28;20387;-66
2023/08/18 16:34:50;;;;;;;;;;;;;;;;;;5002866;28;19921;-66
2023/08/18 16:37:17;;;;;;;;;;;;;;;;;;5018360;28;20427;-66
2023/08/18 16:39:43;;;;;;;;;;;;;;;;;;5005499;28;20496;-65
2023/08/18 16:42:11;;;;;;;;;;;;;;;;;;5019173;28;20427;-66
2023/08/18 16:44:36;;;;;;;;;;;;;;;;;;5019196;28;20036;-66
2023/08/18 16:47:05;;;;;;;;;;;;;;;;;;5004991;28;20024;-65
2023/08/18 16:49:30;;;;;;;;;;;;;;;;;;5018806;28;19920;-66
2023/08/18 16:51:58;;;;;;;;;;;;;;;;;;5009078;28;19917;-66
2023/08/18 16:54:23;;;;;;;;;;;;;;;;;;5003487;28;19962;-66
2023/08/18 16:56:51;;;;;;;;;;;;;;;;;;4987984;28;19933;-66
2023/08/18 16:59:17;;;;;;;;;;;;;;;;;;5018442;28;19922;-67
2023/08/18 17:01:44;;;;;;;;;;;;;;;;;;5000897;28;19940;-66